Time;durP1;ratioP1;P1;durP2;ratioP2;P2;SDS_P1;SDS_P2;PMS_P1;PMS_P2;Temp;Humidity;BMP_temperature;BMP_pressure;BME280_temperature;BME280_humidity;BME280_pressure;Samples;Min_cycle;Max_cycle;Signal;HPM_P1;HPM_P2
2021/12/07 00:02:00;;;;;;;14.97;13.07;;;;;;;0.72;100.00;99170.28;4956053;28;20724;-59
2021/12/07 00:04:25;;;;;;;13.73;11.20;;;;;;;0.73;100.00;99176.16;4991564;28;20179;-60
2021/12/07 00:06:51;;;;;;;15.10;12.97;;;;;;;0.73;100.00;99163.50;4992352;28;20167;-60
2021/12/07 00:09:18;;;;;;;12.63;9.47;;;;;;;0.69;100.00;99167.00;4992129;28;20229;-60
2021/12/07 00:11:45;;;;;;;13.87;12.20;;;;;;;0.69;100.00;99169.53;4981089;28;20254;-59
2021/12/07 00:14:13;;;;;;;15.37;12.63;;;;;;;0.63;100.00;99168.00;4992089;28;20175;-61
2021/12/07 00:16:41;;;;;;;14.90;11.70;;;;;;;0.69;100.00;99172.06;4981183;28;20616;-60
2021/12/07 00:19:07;;;;;;;13.00;11.60;;;;;;;0.73;100.00;99171.09;4994913;28;20294;-60
2021/12/07 00:21:33;;;;;;;14.47;11.83;;;;;;;0.73;100.00;99164.34;4981280;28;20266;-60
2021/12/07 00:23:58;;;;;;;13.70;12.30;;;;;;;0.70;100.00;99161.09;4973772;28;20254;-60
2021/12/07 00:26:24;;;;;;;12.93;11.50;;;;;;;0.67;100.00;99162.00;4988845;28;20180;-59
2021/12/07 00:28:50;;;;;;;13.17;11.77;;;;;;;0.72;100.00;99164.38;4988752;28;20210;-60
2021/12/07 00:31:28;;;;;;;13.67;12.10;;;;;;;0.74;100.00;99158.41;4960134;28;20699;-60
2021/12/07 00:36:31;;;;;;;13.87;12.13;;;;;;;0.80;100.00;99158.22;4990262;28;20179;-60
2021/12/07 00:38:56;;;;;;;16.33;11.83;;;;;;;0.80;100.00;99150.63;4983510;28;20222;-61
2021/12/07 00:41:22;;;;;;;15.10;11.93;;;;;;;0.75;100.00;99151.66;4991677;28;20317;-60
2021/12/07 00:43:47;;;;;;;13.03;11.63;;;;;;;0.78;100.00;99151.53;4996757;28;20217;-61
2021/12/07 00:46:12;;;;;;;13.90;12.43;;;;;;;0.88;100.00;99141.97;4991828;28;20635;-60
2021/12/07 00:48:38;;;;;;;14.33;11.23;;;;;;;0.79;100.00;99145.59;4991852;28;20699;-59
2021/12/07 00:51:03;;;;;;;18.23;12.83;;;;;;;0.78;100.00;99143.94;4989058;28;20236;-61
2021/12/07 00:53:29;;;;;;;14.23;12.07;;;;;;;0.87;100.00;99143.69;4999235;28;20175;-61
2021/12/07 00:55:57;;;;;;;15.10;11.67;;;;;;;0.83;100.00;99139.56;4991395;28;20261;-59
2021/12/07 00:58:24;;;;;;;14.20;12.50;;;;;;;0.89;100.00;99144.44;4997086;28;20218;-60
2021/12/07 01:00:54;;;;;;;13.70;12.20;;;;;;;0.86;100.00;99144.56;5000480;28;20325;-60
2021/12/07 01:03:21;;;;;;;16.17;12.27;;;;;;;0.97;100.00;99159.44;5010710;28;20544;-61
2021/12/07 01:05:51;;;;;;;14.37;12.30;;;;;;;1.21;100.00;99162.09;5011218;28;20171;-61
2021/12/07 01:08:27;;;;;;;16.73;13.73;;;;;;;1.34;100.00;99150.69;5011192;28;20166;-61
2021/12/07 01:24:42;;;;;;;3.30;2.73;;;;;;;1.20;100.00;99157.88;5011242;28;20189;-60
2021/12/07 01:27:13;;;;;;;4.13;2.27;;;;;;;1.17;100.00;99148.69;5011066;28;20201;-61
2021/12/07 01:29:40;;;;;;;2.70;2.50;;;;;;;1.33;100.00;99153.25;5010378;28;20541;-61
2021/12/07 01:47:42;;;;;;;2.43;2.23;;;;;;;1.49;100.00;99166.25;5014730;28;20229;-61
2021/12/07 02:00:31;;;;;;;2.53;2.33;;;;;;;1.60;100.00;99147.31;4983854;28;20232;-60
2021/12/07 02:02:57;;;;;;;2.80;2.60;;;;;;;1.59;100.00;99142.28;4993704;28;20184;-60
2021/12/07 02:05:22;;;;;;;2.70;2.50;;;;;;;1.47;100.00;99132.56;4994635;28;20172;-61
2021/12/07 02:07:48;;;;;;;2.40;2.20;;;;;;;1.42;100.00;99138.59;4994541;28;20175;-60
2021/12/07 02:10:18;;;;;;;3.17;2.50;;;;;;;1.42;100.00;99146.19;4983933;28;20194;-61
2021/12/07 02:12:46;;;;;;;2.50;2.20;;;;;;;1.42;100.00;99138.59;4993485;28;20641;-60
2021/12/07 02:15:17;;;;;;;2.57;2.37;;;;;;;1.51;100.00;99144.25;4994414;28;20176;-61
2021/12/07 02:17:44;;;;;;;2.87;2.67;;;;;;;1.55;100.00;99143.25;5002085;28;20168;-61
2021/12/07 02:20:12;;;;;;;2.90;2.60;;;;;;;1.56;100.00;99145.75;4982301;28;20262;-61
2021/12/07 02:22:38;;;;;;;2.77;2.50;;;;;;;1.53;100.00;99156.00;4993014;28;20183;-61
2021/12/07 02:25:05;;;;;;;3.00;2.80;;;;;;;1.61;100.00;99158.25;5013618;28;20179;-61
2021/12/07 02:27:30;;;;;;;2.30;2.10;;;;;;;1.69;100.00;99155.50;5013552;28;20262;-61
2021/12/07 02:29:55;;;;;;;3.07;2.77;;;;;;;1.75;100.00;99163.72;5013479;28;20282;-61
2021/12/07 02:32:21;;;;;;;4.70;2.83;;;;;;;1.78;100.00;99162.78;5002345;28;20218;-60
2021/12/07 02:34:55;;;;;;;6.67;2.90;;;;;;;1.99;100.00;99168.03;5013550;28;20175;-62
2021/12/07 02:37:22;;;;;;;2.93;2.10;;;;;;;1.99;100.00;99171.38;5013357;28;20573;-59
2021/12/07 02:39:48;;;;;;;4.03;2.50;;;;;;;2.09;100.00;99180.31;5013025;28;20834;-60
2021/12/07 02:42:14;;;;;;;4.90;2.40;;;;;;;2.17;100.00;99175.00;5002245;28;20700;-60
2021/12/07 02:44:39;;;;;;;3.97;2.30;;;;;;;2.28;100.00;99182.22;5013408;28;20166;-60
2021/12/07 02:47:05;;;;;;;4.00;2.43;;;;;;;2.36;100.00;99187.03;5012005;28;20168;-59
2021/12/07 02:49:30;;;;;;;4.50;2.47;;;;;;;2.32;100.00;99188.00;5013022;28;20169;-60
2021/12/07 02:51:55;;;;;;;7.07;1.90;;;;;;;2.48;100.00;99188.31;5002438;28;20305;-60
2021/12/07 02:54:21;;;;;;;3.07;1.90;;;;;;;2.43;100.00;99198.59;5013036;28;20164;-61
2021/12/07 02:56:48;;;;;;;6.10;2.27;;;;;;;2.46;100.00;99197.69;5013066;28;20187;-60
2021/12/07 02:59:13;;;;;;;3.93;2.40;;;;;;;2.59;100.00;99198.91;5000259;28;20200;-60
2021/12/07 03:01:46;;;;;;;2.33;1.80;;;;;;;2.56;100.00;99199.03;4982659;28;20236;-61
2021/12/07 03:04:18;;;;;;;4.10;2.60;;;;;;;2.63;100.00;99197.91;4993132;28;20235;-60
2021/12/07 03:26:06;;;;;;;6.33;2.00;;;;;;;2.93;100.00;99212.06;4993369;28;20904;-61
2021/12/07 03:28:35;;;;;;;4.60;2.20;;;;;;;2.88;100.00;99208.00;4992796;28;20179;-60
2021/12/07 03:31:02;;;;;;;5.03;1.83;;;;;;;2.99;100.00;99214.38;4982141;28;20245;-60
2021/12/07 03:33:28;;;;;;;6.50;2.10;;;;;;;2.99;100.00;99211.84;4992242;28;20842;-61
2021/12/07 03:35:53;;;;;;;8.33;2.23;;;;;;;2.90;100.00;99218.94;4992770;28;20170;-60
2021/12/07 03:38:19;;;;;;;3.37;2.10;;;;;;;2.90;100.00;99221.47;4992544;28;20200;-60
2021/12/07 03:40:44;;;;;;;8.37;1.87;;;;;;;2.85;100.00;99222.50;4982231;28;20733;-60
2021/12/07 03:43:10;;;;;;;5.83;2.03;;;;;;;2.87;100.00;99230.91;4991670;28;20544;-60
2021/12/07 03:45:36;;;;;;;11.20;2.63;;;;;;;2.78;100.00;99234.63;4992941;28;20574;-60
2021/12/07 03:48:05;;;;;;;7.50;2.83;;;;;;;2.73;100.00;99244.13;4992392;28;20623;-60
2021/12/07 03:50:30;;;;;;;8.27;3.10;;;;;;;2.82;100.00;99245.50;4982167;28;20231;-60
2021/12/07 03:52:56;;;;;;;7.63;2.30;;;;;;;2.86;100.00;99245.31;4991583;28;20193;-60
2021/12/07 03:55:21;;;;;;;4.10;2.00;;;;;;;2.78;100.00;99257.47;4992384;28;20255;-60
2021/12/07 03:57:47;;;;;;;5.80;2.30;;;;;;;2.84;100.00;99254.72;4991200;28;20688;-60
2021/12/07 04:00:17;;;;;;;5.07;2.27;;;;;;;2.87;100.00;99259.69;4952903;28;20647;-61
2021/12/07 04:02:43;;;;;;;5.00;2.20;;;;;;;2.90;100.00;99264.66;4971879;28;20182;-60
2021/12/07 04:05:14;;;;;;;5.33;2.40;;;;;;;2.92;100.00;99256.97;4972938;28;20628;-60
2021/12/07 04:07:40;;;;;;;5.97;2.03;;;;;;;2.90;100.00;99251.97;4972922;28;20180;-60
2021/12/07 04:10:07;;;;;;;7.63;2.30;;;;;;;2.96;100.00;99265.31;4962857;28;20268;-59
2021/12/07 04:12:34;;;;;;;6.57;2.30;;;;;;;3.02;100.00;99268.44;4971756;28;20575;-60
2021/12/07 04:15:00;;;;;;;6.43;2.10;;;;;;;2.99;100.00;99272.81;4972720;28;20199;-60
2021/12/07 04:17:25;;;;;;;6.20;1.90;;;;;;;2.97;100.00;99280.50;4972725;28;20242;-60
2021/12/07 04:19:51;;;;;;;9.43;2.33;;;;;;;2.96;100.00;99272.94;4972535;28;20211;-62
2021/12/07 04:22:16;;;;;;;6.93;2.40;;;;;;;2.98;100.00;99276.25;4961639;28;20321;-60
2021/12/07 04:24:42;;;;;;;6.33;2.50;;;;;;;3.09;100.00;99288.56;4972577;28;20233;-61
2021/12/07 04:27:07;;;;;;;7.97;2.07;;;;;;;2.97;100.00;99297.47;4972451;28;20185;-60
2021/12/07 04:29:33;;;;;;;5.83;2.37;;;;;;;2.94;100.00;99306.03;4972455;28;20178;-60
2021/12/07 04:31:58;;;;;;;7.57;2.20;;;;;;;2.97;100.00;99310.97;4942174;28;20273;-60
2021/12/07 04:34:23;;;;;;;8.60;2.30;;;;;;;2.95;100.00;99312.75;4972010;28;20180;-60
2021/12/07 04:36:49;;;;;;;5.87;2.27;;;;;;;2.96;100.00;99321.22;4971296;28;20572;-62
2021/12/07 04:39:14;;;;;;;12.73;2.47;;;;;;;2.87;100.00;99317.28;4970774;28;20294;-60
2021/12/07 04:41:43;;;;;;;4.10;2.00;;;;;;;2.94;100.00;99317.88;4961440;28;20265;-61
2021/12/07 04:44:08;;;;;;;7.17;2.47;;;;;;;2.88;100.00;99324.03;4972238;28;20633;-60
2021/12/07 04:46:40;;;;;;;4.87;2.17;;;;;;;2.85;100.00;99324.97;4972417;28;20211;-60
2021/12/07 05:00:01;;;;;;;7.57;2.33;;;;;;;2.79;100.00;99334.50;4990094;28;20241;-61
2021/12/07 05:02:26;;;;;;;4.67;1.97;;;;;;;2.87;100.00;99338.44;4980755;28;20330;-61
2021/12/07 05:04:51;;;;;;;5.17;2.03;;;;;;;2.93;100.00;99342.47;4991704;28;20657;-61
2021/12/07 05:07:42;;;;;;;5.87;2.17;;;;;;;2.95;99.64;99343.22;4991511;28;20536;-61
2021/12/07 05:10:16;;;;;;;10.53;2.50;;;;;;;2.82;99.05;99342.84;4988265;28;20210;-61
2021/12/07 05:12:58;;;;;;;5.80;2.33;;;;;;;2.80;98.97;99349.69;4994393;28;20200;-61
2021/12/07 05:18:05;;;;;;;9.50;2.33;;;;;;;2.86;98.34;99368.97;4984269;28;20188;-61
2021/12/07 05:39:37;;;;;;;9.47;2.63;;;;;;;3.03;96.28;99392.06;4994745;28;20225;-61
2021/12/07 05:42:03;;;;;;;9.27;2.67;;;;;;;3.09;96.72;99400.34;4984104;28;20236;-61
2021/12/07 05:44:29;;;;;;;4.50;1.93;;;;;;;3.03;95.51;99407.31;4995075;28;20183;-61
2021/12/07 05:46:55;;;;;;;6.53;2.60;;;;;;;3.07;95.72;99413.13;4995014;28;20285;-61
2021/12/07 05:49:21;;;;;;;11.10;2.70;;;;;;;3.06;95.49;99416.53;4994658;28;20254;-61
2021/12/07 05:51:46;;;;;;;7.27;2.23;;;;;;;3.12;95.06;99423.16;4983870;28;20244;-61
2021/12/07 05:54:12;;;;;;;5.90;2.00;;;;;;;3.22;94.73;99419.38;4994472;28;20245;-61
2021/12/07 05:56:39;;;;;;;4.73;2.13;;;;;;;3.20;94.50;99423.69;4994474;28;20205;-61
2021/12/07 05:59:04;;;;;;;4.27;2.30;;;;;;;3.24;94.13;99425.25;4983188;28;20294;-61
2021/12/07 06:01:29;;;;;;;11.53;2.30;;;;;;;3.28;94.48;99436.97;4964614;28;20325;-61
2021/12/07 06:03:55;;;;;;;5.37;2.13;;;;;;;3.17;94.62;99437.34;4974748;28;20522;-61
2021/12/07 06:06:20;;;;;;;5.07;2.60;;;;;;;3.10;95.00;99446.06;4975047;28;20182;-61
2021/12/07 06:08:45;;;;;;;8.87;2.40;;;;;;;3.04;95.18;99449.63;4957476;28;20632;-61
2021/12/07 06:11:11;;;;;;;8.33;2.50;;;;;;;3.16;95.68;99462.81;4964123;28;20318;-61
2021/12/07 06:13:36;;;;;;;7.70;2.30;;;;;;;3.10;96.16;99468.09;4957498;28;20185;-62
2021/12/07 06:16:08;;;;;;;6.53;2.40;;;;;;;3.13;97.06;99473.91;4974817;28;20251;-61
2021/12/07 06:18:35;;;;;;;11.33;2.50;;;;;;;3.21;97.05;99466.00;4974574;28;20652;-61
2021/12/07 06:21:01;;;;;;;5.77;2.17;;;;;;;3.05;97.26;99469.09;4963955;28;20333;-61
2021/12/07 06:23:26;;;;;;;10.03;3.37;;;;;;;3.07;97.15;99479.19;4974011;28;20271;-61
2021/12/07 06:25:54;;;;;;;7.40;2.20;;;;;;;3.16;97.62;99486.53;4974497;28;20210;-61
2021/12/07 06:28:20;;;;;;;5.97;2.37;;;;;;;3.04;97.55;99492.03;4974478;28;20552;-61
2021/12/07 06:30:47;;;;;;;10.93;2.30;;;;;;;2.95;97.95;99492.31;4963808;28;20258;-61
2021/12/07 06:33:15;;;;;;;8.60;2.87;;;;;;;3.02;97.99;99492.03;4987541;28;20191;-61
2021/12/07 06:35:41;;;;;;;5.97;2.33;;;;;;;3.08;97.68;99493.56;4992899;28;20599;-61
2021/12/07 06:38:07;;;;;;;9.53;2.57;;;;;;;3.04;98.00;99497.91;4991416;28;20187;-61
2021/12/07 06:40:33;;;;;;;7.30;2.53;;;;;;;2.93;97.95;99511.84;4975651;28;20238;-61
2021/12/07 06:43:00;;;;;;;6.27;2.30;;;;;;;2.97;98.64;99516.78;4992145;28;20241;-61
2021/12/07 06:45:27;;;;;;;5.53;2.30;;;;;;;2.90;99.07;99512.78;4993936;28;20524;-61
2021/12/07 06:47:53;;;;;;;5.20;2.37;;;;;;;2.82;99.36;99527.44;4993764;28;20301;-61
2021/12/07 06:50:19;;;;;;;7.20;2.67;;;;;;;2.74;99.88;99532.75;4985509;28;20252;-61
2021/12/07 06:52:44;;;;;;;5.53;2.33;;;;;;;2.68;99.69;99532.94;5006409;28;20615;-61
2021/12/07 06:55:10;;;;;;;8.87;2.27;;;;;;;2.73;99.80;99546.34;4993436;28;20187;-60
2021/12/07 06:57:35;;;;;;;5.63;2.20;;;;;;;2.74;100.00;99555.59;4988486;28;20273;-61
2021/12/07 07:00:01;;;;;;;8.50;2.47;;;;;;;2.87;100.00;99563.69;4984526;28;20257;-61
2021/12/07 07:02:26;;;;;;;5.20;1.83;;;;;;;2.89;99.67;99564.47;4973557;28;20234;-61
2021/12/07 07:04:52;;;;;;;4.93;2.17;;;;;;;2.94;99.46;99572.78;4990720;28;20522;-61
2021/12/07 07:07:18;;;;;;;5.10;2.50;;;;;;;3.02;98.76;99578.44;4992483;28;20199;-61
2021/12/07 07:09:44;;;;;;;9.23;2.17;;;;;;;3.03;98.62;99584.38;4992150;28;20218;-61
2021/12/07 07:12:09;;;;;;;7.97;2.73;;;;;;;2.88;98.15;99583.97;4975331;28;20270;-61
2021/12/07 07:14:34;;;;;;;6.17;1.97;;;;;;;2.89;97.49;99589.88;4988487;28;20214;-60
2021/12/07 07:17:00;;;;;;;9.93;2.60;;;;;;;3.01;97.00;99581.03;4984730;28;20182;-60
2021/12/07 07:19:25;;;;;;;10.00;2.47;;;;;;;3.04;96.66;99584.31;4991829;28;20196;-60
2021/12/07 07:21:51;;;;;;;7.63;2.53;;;;;;;2.94;96.15;99593.13;4958618;28;20242;-60
2021/12/07 07:24:16;;;;;;;6.13;2.10;;;;;;;3.02;96.41;99580.97;4982526;28;20190;-60
2021/12/07 07:26:41;;;;;;;4.57;1.80;;;;;;;2.93;95.63;99583.81;4979271;28;20576;-60
2021/12/07 07:29:07;;;;;;;7.63;2.43;;;;;;;2.98;95.86;99583.69;4989135;28;20182;-60
2021/12/07 07:31:33;;;;;;;5.87;2.87;;;;;;;2.84;96.29;99587.50;4970301;28;20246;-60
2021/12/07 07:33:58;;;;;;;7.13;2.10;;;;;;;2.76;96.66;99593.69;4988843;28;20191;-60
2021/12/07 07:36:23;;;;;;;6.23;2.27;;;;;;;2.90;96.73;99597.47;4989719;28;20198;-60
2021/12/07 07:38:49;;;;;;;6.57;2.67;;;;;;;2.90;95.63;99600.00;4989371;28;20240;-60
2021/12/07 07:41:14;;;;;;;6.67;2.10;;;;;;;2.90;95.69;99597.47;4982560;28;20672;-61
2021/12/07 07:43:40;;;;;;;5.37;2.10;;;;;;;2.99;95.11;99588.72;5004777;28;20288;-60
2021/12/07 07:46:05;;;;;;;9.37;2.90;;;;;;;3.00;94.75;99599.69;5002379;28;20198;-61
2021/12/07 07:48:30;;;;;;;10.83;2.87;;;;;;;3.05;94.48;99603.78;4988748;28;20197;-60
2021/12/07 07:50:57;;;;;;;4.63;2.17;;;;;;;3.02;94.44;99608.13;4985826;28;20232;-60
2021/12/07 07:53:22;;;;;;;7.37;2.57;;;;;;;3.10;94.16;99616.34;5007822;28;20197;-61
2021/12/07 07:55:49;;;;;;;9.77;2.97;;;;;;;3.15;93.36;99618.72;5011922;28;20563;-60
2021/12/07 07:58:15;;;;;;;3.87;2.80;;;;;;;3.44;92.35;99612.69;4995296;28;20268;-60
2021/12/07 08:00:42;;;;;;;8.80;2.70;;;;;;;3.31;92.21;99617.38;4963826;28;20381;-61
2021/12/07 08:03:08;;;;;;;5.43;2.37;;;;;;;3.32;91.61;99625.81;4991096;28;20186;-61
2021/12/07 08:05:33;;;;;;;8.73;2.60;;;;;;;3.32;92.03;99635.97;5008337;28;20182;-61
2021/12/07 08:07:59;;;;;;;9.83;2.63;;;;;;;3.40;91.67;99621.31;5011807;28;20670;-61
2021/12/07 08:10:29;;;;;;;6.80;2.20;;;;;;;3.33;91.41;99641.00;4977048;28;20247;-61
2021/12/07 08:12:59;;;;;;;6.07;2.63;;;;;;;3.47;90.96;99627.03;4979686;28;20179;-61
2021/12/07 08:15:26;;;;;;;8.40;2.10;;;;;;;3.51;90.85;99631.97;4974951;28;20246;-61
2021/12/07 08:17:52;;;;;;;5.77;2.10;;;;;;;3.54;90.69;99639.47;4987125;28;20185;-61
2021/12/07 08:20:18;;;;;;;6.70;2.00;;;;;;;3.61;90.22;99642.66;4975005;28;20218;-61
2021/12/07 08:22:43;;;;;;;4.67;2.47;;;;;;;3.70;89.99;99649.16;5005129;28;20197;-61
2021/12/07 08:25:09;;;;;;;9.67;2.20;;;;;;;3.79;89.58;99648.84;4991913;28;20549;-61
2021/12/07 08:27:35;;;;;;;8.87;2.63;;;;;;;3.88;88.88;99651.09;4991790;28;20628;-61
2021/12/07 08:30:01;;;;;;;7.90;2.30;;;;;;;3.81;87.44;99669.16;4991467;28;20285;-60
2021/12/07 08:32:26;;;;;;;6.53;2.23;;;;;;;3.85;87.17;99660.53;4944623;28;20229;-61
2021/12/07 08:34:52;;;;;;;5.27;2.43;;;;;;;3.97;86.52;99656.72;4991829;28;20182;-61
2021/12/07 08:37:17;;;;;;;4.47;1.70;;;;;;;3.84;86.72;99656.31;4991911;28;20183;-61
2021/12/07 08:39:43;;;;;;;6.37;1.77;;;;;;;3.88;86.47;99658.72;4991408;28;20203;-60
2021/12/07 08:42:08;;;;;;;6.03;1.93;;;;;;;4.08;86.44;99658.91;4997644;28;20240;-60
2021/12/07 08:44:34;;;;;;;8.00;2.17;;;;;;;4.19;86.12;99656.81;5010761;28;20305;-62
2021/12/07 08:47:00;;;;;;;5.83;2.20;;;;;;;4.20;85.46;99656.78;5011193;28;20182;-60
2021/12/07 08:49:25;;;;;;;7.10;2.07;;;;;;;4.21;84.63;99652.50;5010742;28;20706;-60
2021/12/07 08:51:51;;;;;;;5.30;2.03;;;;;;;4.31;84.85;99660.66;5000186;28;20233;-61
2021/12/07 08:54:29;;;;;;;6.13;2.00;;;;;;;4.12;85.52;99670.63;5010922;28;20268;-61
2021/12/07 08:59:44;;;;;;;5.23;2.13;;;;;;;4.12;85.78;99673.19;4986182;28;20273;-60
2021/12/07 09:02:11;;;;;;;4.70;1.90;;;;;;;4.06;85.07;99675.94;4984527;28;20345;-61
2021/12/07 09:04:36;;;;;;;6.70;2.07;;;;;;;4.15;85.60;99675.63;4991417;28;20180;-60
2021/12/07 09:07:02;;;;;;;4.83;2.27;;;;;;;4.21;86.04;99677.97;4991273;28;20189;-60
2021/12/07 09:09:28;;;;;;;4.60;1.90;;;;;;;4.12;86.45;99671.47;4990029;28;20269;-62
2021/12/07 09:11:54;;;;;;;6.67;2.73;;;;;;;4.25;86.00;99681.25;4977735;28;20235;-62
2021/12/07 09:14:23;;;;;;;3.93;1.80;;;;;;;4.35;85.32;99682.56;4986580;28;20259;-62
2021/12/07 09:16:49;;;;;;;7.63;2.07;;;;;;;4.53;83.75;99681.09;4979128;28;20183;-62
2021/12/07 09:19:15;;;;;;;5.90;2.10;;;;;;;4.44;83.96;99672.06;4980615;28;20218;-62
2021/12/07 09:21:41;;;;;;;7.70;2.00;;;;;;;4.44;83.06;99682.25;4978814;28;20612;-62
2021/12/07 09:24:08;;;;;;;4.43;2.10;;;;;;;4.42;82.76;99689.09;4990788;28;20183;-63
2021/12/07 09:26:34;;;;;;;3.27;1.87;;;;;;;4.58;82.32;99696.22;4991400;28;20238;-61
2021/12/07 09:28:59;;;;;;;5.40;1.97;;;;;;;4.44;80.49;99697.53;4990524;28;20187;-62
2021/12/07 09:31:25;;;;;;;5.40;2.03;;;;;;;4.52;80.25;99695.53;4985426;28;20720;-60
2021/12/07 09:33:51;;;;;;;8.23;2.07;;;;;;;4.36;80.52;99700.31;4993992;28;20425;-61
2021/12/07 09:36:17;;;;;;;5.80;2.17;;;;;;;4.20;80.39;99702.59;4990488;28;20179;-61
2021/12/07 09:38:43;;;;;;;10.10;2.40;;;;;;;4.25;80.74;99699.06;4990437;28;20207;-61
2021/12/07 09:41:10;;;;;;;5.27;1.77;;;;;;;4.25;80.88;99702.44;4974082;28;20322;-61
2021/12/07 09:43:36;;;;;;;6.33;2.30;;;;;;;4.33;81.97;99708.09;4989762;28;20608;-61
2021/12/07 09:46:07;;;;;;;4.87;2.20;;;;;;;4.55;81.86;99702.22;4972042;28;20214;-61
2021/12/07 09:48:33;;;;;;;5.87;2.20;;;;;;;4.78;82.00;99708.22;4970668;28;20288;-61
2021/12/07 09:51:00;;;;;;;6.90;2.33;;;;;;;4.69;81.45;99706.84;4960955;28;20231;-61
2021/12/07 09:53:28;;;;;;;11.33;3.00;;;;;;;4.68;81.23;99707.72;4981593;28;20192;-60
2021/12/07 09:55:55;;;;;;;6.83;2.50;;;;;;;4.59;82.10;99720.78;4989510;28;20215;-61
2021/12/07 09:58:20;;;;;;;9.73;3.17;;;;;;;4.48;82.31;99721.19;4991046;28;20314;-60
2021/12/07 10:00:46;;;;;;;6.73;2.20;;;;;;;4.47;82.82;99724.59;4984340;28;20235;-61
2021/12/07 10:03:12;;;;;;;7.87;2.80;;;;;;;4.45;83.14;99723.81;5000538;28;20183;-59
2021/12/07 10:05:40;;;;;;;8.17;3.10;;;;;;;4.61;83.01;99716.47;4993893;28;20303;-60
2021/12/07 10:08:07;;;;;;;5.67;2.50;;;;;;;4.61;82.12;99696.91;4987433;28;20184;-61
2021/12/07 10:10:40;;;;;;;6.27;2.50;;;;;;;4.85;81.82;99696.91;4981244;28;20239;-61
2021/12/07 10:13:07;;;;;;;6.37;2.37;;;;;;;4.56;81.34;99692.88;4988950;28;20183;-61
2021/12/07 10:15:33;;;;;;;4.70;2.10;;;;;;;4.82;80.72;99691.91;4994446;28;20663;-61
2021/12/07 10:18:16;;;;;;;7.27;2.50;;;;;;;4.83;79.99;99694.41;4983033;28;20192;-61
2021/12/07 10:20:44;;;;;;;6.20;2.50;;;;;;;4.74;80.14;99692.22;4983509;28;20622;-62
2021/12/07 10:23:16;;;;;;;11.37;3.40;;;;;;;4.95;80.66;99697.38;4993202;28;20633;-62
2021/12/07 10:25:47;;;;;;;6.30;2.13;;;;;;;5.19;80.73;99695.63;4994096;28;20278;-62
2021/12/07 10:28:32;;;;;;;5.40;1.80;;;;;;;5.23;80.22;99696.34;4993550;28;20196;-61
2021/12/07 10:31:07;;;;;;;6.37;2.40;;;;;;;5.13;79.29;99694.13;4974745;28;20242;-62
2021/12/07 10:33:46;;;;;;;9.52;2.38;;;;;;;5.46;77.21;99692.88;4992203;28;20419;-62
2021/12/07 10:36:13;;;;;;;8.20;2.13;;;;;;;5.42;78.11;99683.69;4993859;28;20174;-61
2021/12/07 10:38:40;;;;;;;9.60;2.30;;;;;;;5.47;76.44;99692.81;4994000;28;20256;-61
2021/12/07 10:41:10;;;;;;;11.90;2.70;;;;;;;5.48;76.37;99686.81;4991859;28;20225;-61
2021/12/07 10:44:05;;;;;;;5.67;2.47;;;;;;;5.75;75.17;99683.22;5012756;28;20173;-61
2021/12/07 10:46:33;;;;;;;7.67;2.47;;;;;;;5.93;74.32;99676.53;5005012;28;20181;-61
2021/12/07 10:49:13;;;;;;;5.43;1.93;;;;;;;5.86;72.44;99681.03;4989567;28;20186;-61
2021/12/07 10:51:41;;;;;;;9.40;1.97;;;;;;;5.72;72.08;99678.22;4974979;28;20255;-61
2021/12/07 10:54:07;;;;;;;4.70;1.87;;;;;;;5.80;72.88;99668.53;4987987;28;20185;-60
2021/12/07 10:56:35;;;;;;;9.10;2.47;;;;;;;5.84;71.85;99667.50;4992694;28;20209;-60
2021/12/07 10:59:07;;;;;;;9.57;2.23;;;;;;;5.72;72.24;99662.91;4982758;28;20204;-61
2021/12/07 11:01:34;;;;;;;6.83;1.83;;;;;;;5.64;71.27;99656.41;4986134;28;20224;-60
2021/12/07 11:04:33;;;;;;;12.93;2.57;;;;;;;5.39;72.21;99664.22;4988916;28;20189;-60
2021/12/07 11:07:03;;;;;;;5.60;1.67;;;;;;;5.17;72.24;99648.94;4984980;28;20177;-61
2021/12/07 11:09:28;;;;;;;7.93;2.00;;;;;;;5.27;72.71;99660.47;4988707;28;20178;-62
2021/12/07 11:12:18;;;;;;;9.97;2.00;;;;;;;5.00;71.94;99660.63;4973695;28;20216;-60
2021/12/07 11:14:49;;;;;;;6.63;2.17;;;;;;;4.94;71.64;99650.69;4989408;28;20191;-60
2021/12/07 11:17:24;;;;;;;4.30;1.93;;;;;;;4.89;72.18;99656.81;4992408;28;20242;-61
2021/12/07 11:19:51;;;;;;;11.57;2.20;;;;;;;4.98;70.78;99652.22;4984020;28;20225;-61
2021/12/07 11:22:26;;;;;;;6.50;1.93;;;;;;;4.90;71.03;99664.44;4989964;28;20730;-61
2021/12/07 11:24:53;;;;;;;9.17;2.40;;;;;;;5.04;70.83;99652.88;4990499;28;20190;-61
2021/12/07 11:30:28;;;;;;;6.10;1.83;;;;;;;4.94;70.79;99645.56;4983332;28;20201;-61
2021/12/07 11:32:57;;;;;;;5.47;1.70;;;;;;;4.96;70.78;99651.47;4994509;28;20183;-60
2021/12/07 11:35:35;;;;;;;5.80;2.00;;;;;;;5.03;71.55;99641.03;4992799;28;20170;-61
2021/12/07 11:38:05;;;;;;;6.70;2.43;;;;;;;4.87;70.81;99631.41;4992802;28;20175;-61
2021/12/07 11:40:34;;;;;;;4.83;1.90;;;;;;;4.89;69.91;99641.53;4986513;28;21003;-62
2021/12/07 11:43:00;;;;;;;22.73;11.07;;;;;;;5.08;70.19;99631.47;4991682;28;20191;-61
2021/12/07 11:45:31;;;;;;;6.23;1.97;;;;;;;4.92;69.05;99636.34;4990383;28;20190;-61
2021/12/07 11:48:03;;;;;;;7.77;2.27;;;;;;;4.91;70.07;99638.06;4990812;28;20183;-61
2021/12/07 11:50:59;;;;;;;10.03;1.63;;;;;;;5.01;69.76;99628.31;4984251;28;20245;-60
2021/12/07 11:53:25;;;;;;;9.10;2.30;;;;;;;5.07;68.81;99614.50;4967749;28;20592;-60
2021/12/07 11:55:54;;;;;;;4.33;2.03;;;;;;;5.07;68.95;99612.78;4973190;28;20267;-61
2021/12/07 11:58:20;;;;;;;7.90;1.90;;;;;;;4.95;69.53;99609.00;4960445;28;20564;-61
2021/12/07 12:00:50;;;;;;;9.07;2.70;;;;;;;4.99;68.83;99613.09;4965487;28;20339;-61
2021/12/07 12:03:19;;;;;;;9.00;2.83;;;;;;;5.07;69.81;99610.22;4981260;28;20171;-61
2021/12/07 12:05:46;;;;;;;8.13;3.33;;;;;;;5.07;69.72;99607.69;4992043;28;20179;-61
2021/12/07 12:08:14;;;;;;;3.67;1.80;;;;;;;5.01;69.21;99596.03;4991909;28;20262;-61
2021/12/07 12:10:44;;;;;;;8.10;2.27;;;;;;;5.11;69.07;99603.28;4981327;28;20299;-61
2021/12/07 12:13:53;;;;;;;4.40;1.73;;;;;;;5.21;68.98;99591.84;4979424;28;20238;-61
2021/12/07 12:16:21;;;;;;;6.90;1.90;;;;;;;5.24;69.20;99589.16;4978413;28;20230;-61
2021/12/07 12:19:06;;;;;;;5.10;1.97;;;;;;;5.26;68.12;99587.38;4989285;28;20205;-59
2021/12/07 12:21:44;;;;;;;6.07;2.10;;;;;;;5.04;68.53;99594.25;4986011;28;20235;-60
2021/12/07 12:24:18;;;;;;;6.83;1.70;;;;;;;5.00;68.44;99586.72;4991501;28;20181;-59
2021/12/07 12:26:45;;;;;;;6.93;2.07;;;;;;;5.00;69.19;99583.34;4991842;28;20182;-60
2021/12/07 12:29:33;;;;;;;5.57;2.10;;;;;;;4.84;68.85;99581.38;4987115;28;20168;-60
2021/12/07 12:31:58;;;;;;;6.00;1.80;;;;;;;4.95;69.37;99582.66;4958623;28;20786;-59
2021/12/07 12:34:34;;;;;;;6.97;1.90;;;;;;;4.98;68.83;99573.19;4982077;28;20175;-60
2021/12/07 12:37:02;;;;;;;6.40;2.00;;;;;;;5.21;68.06;99566.34;4991291;28;20210;-59
2021/12/07 12:39:46;;;;;;;7.40;2.10;;;;;;;5.21;68.29;99560.41;4991563;28;20708;-58
2021/12/07 12:42:23;;;;;;;7.13;2.07;;;;;;;5.31;67.90;99562.53;4997968;28;20352;-59
2021/12/07 12:44:48;;;;;;;7.27;2.93;;;;;;;5.20;68.25;99559.59;5011169;28;20178;-59
2021/12/07 12:47:19;;;;;;;7.17;2.07;;;;;;;5.00;68.03;99555.31;5005433;28;20187;-60
2021/12/07 12:49:46;;;;;;;4.33;1.73;;;;;;;4.91;67.98;99553.97;4988384;28;20267;-60
2021/12/07 12:52:11;;;;;;;8.13;2.20;;;;;;;5.03;68.77;99554.34;4969637;28;20212;-61
2021/12/07 12:54:47;;;;;;;4.90;1.90;;;;;;;5.00;69.35;99547.66;4964435;28;20186;-60
2021/12/07 12:57:16;;;;;;;7.83;1.90;;;;;;;5.00;68.79;99551.03;4984105;28;20226;-60
2021/12/07 12:59:44;;;;;;;14.57;2.43;;;;;;;4.99;68.45;99551.91;5007149;28;20225;-60
2021/12/07 13:02:11;;;;;;;8.03;1.97;;;;;;;4.96;68.57;99551.19;4973814;28;20311;-60
2021/12/07 13:04:36;;;;;;;5.20;1.90;;;;;;;4.83;68.87;99546.59;4986847;28;20263;-60
2021/12/07 13:09:35;;;;;;;10.97;2.27;;;;;;;4.85;69.68;99551.66;4975330;28;20596;-60
2021/12/07 13:12:06;;;;;;;5.43;2.10;;;;;;;4.81;70.13;99550.94;4970539;28;20762;-60
2021/12/07 13:14:43;;;;;;;5.37;2.30;;;;;;;4.94;70.11;99547.91;4986320;28;20175;-60
2021/12/07 13:17:14;;;;;;;11.53;2.00;;;;;;;5.17;69.91;99546.94;4993107;28;20183;-60
2021/12/07 13:20:01;;;;;;;7.00;2.30;;;;;;;5.29;69.32;99532.88;4991439;28;20197;-60
2021/12/07 13:22:38;;;;;;;7.37;2.03;;;;;;;5.40;69.04;99535.00;4976220;28;20674;-61
2021/12/07 13:25:08;;;;;;;7.77;2.33;;;;;;;5.63;69.01;99527.19;4998198;28;20589;-63